Time;durP1;ratioP1;P1;durP2;ratioP2;P2;SDS_P1;SDS_P2;PMS_P1;PMS_P2;Temp;Humidity;BMP_temperature;BMP_pressure;BME280_temperature;BME280_humidity;BME280_pressure;Samples;Min_cycle;Max_cycle;Signal;HPM_P1;HPM_P2
2022/10/02 00:02:31;;;;;;;17.05;3.65;;;11.30;99.90;;;;;;4997058;28;20042;-72
2022/10/02 00:05:09;;;;;;;13.23;4.18;;;11.30;99.90;;;;;;4963593;28;20526;-72
2022/10/02 00:08:15;;;;;;;14.05;2.97;;;11.30;99.90;;;;;;4996393;28;20112;-71
2022/10/02 00:11:00;;;;;;;10.93;3.53;;;11.20;99.90;;;;;;4996647;28;20065;-71
2022/10/02 00:13:37;;;;;;;15.60;4.07;;;11.10;99.90;;;;;;4979242;28;20474;-71
2022/10/02 00:16:18;;;;;;;13.07;3.55;;;11.10;99.90;;;;;;4996403;28;20054;-71
2022/10/02 00:18:46;;;;;;;13.23;4.13;;;11.10;99.90;;;;;;4963617;28;20069;-73
2022/10/02 00:21:24;;;;;;;11.45;3.53;;;11.00;99.90;;;;;;4979044;28;20061;-72
2022/10/02 00:23:57;;;;;;;14.32;3.75;;;11.00;99.90;;;;;;4996593;28;20043;-70
2022/10/02 00:26:35;;;;;;;;;;;11.00;99.90;;;;;;4979747;28;20408;-73
2022/10/02 00:29:12;;;;;;;14.95;3.90;;;11.00;99.90;;;;;;4979594;28;20306;-72
2022/10/02 00:31:50;;;;;;;22.67;4.35;;;11.10;99.90;;;;;;4996270;28;20069;-71
2022/10/02 00:34:56;;;;;;;13.52;3.38;;;10.90;99.90;;;;;;4979142;28;20074;-72
2022/10/02 00:37:57;;;;;;;15.68;3.88;;;10.90;99.90;;;;;;4978852;28;20049;-72
2022/10/02 00:40:41;;;;;;;16.92;4.18;;;10.80;99.90;;;;;;4983218;28;20094;-71
2022/10/02 00:43:12;;;;;;;22.92;4.60;;;10.80;99.90;;;;;;4996300;28;20061;-71
2022/10/02 00:45:52;;;;;;;17.25;4.00;;;10.70;99.90;;;;;;4979332;28;20049;-72
2022/10/02 00:48:36;;;;;;;15.00;4.10;;;10.70;99.90;;;;;;4996274;28;20057;-72
2022/10/02 00:51:30;;;;;;;11.88;3.67;;;10.60;99.90;;;;;;4995814;28;20046;-72
2022/10/02 00:53:59;;;;;;;10.52;3.80;;;10.60;99.90;;;;;;4995818;28;20042;-72
2022/10/02 00:56:42;;;;;;;17.50;3.90;;;10.50;99.90;;;;;;4995915;28;20069;-72
2022/10/02 00:59:08;;;;;;;13.15;3.20;;;10.70;99.90;;;;;;4995808;28;20042;-72
2022/10/02 01:01:40;;;;;;;11.77;3.85;;;10.50;99.90;;;;;;4979006;28;20367;-70
2022/10/02 01:04:13;;;;;;;14.75;3.85;;;10.40;99.90;;;;;;4995699;28;20137;-70
2022/10/02 01:06:39;;;;;;;15.13;3.70;;;10.40;99.90;;;;;;4995442;28;20046;-72
2022/10/02 01:09:05;;;;;;;13.68;4.43;;;10.40;99.90;;;;;;4995921;28;20348;-72
2022/10/02 01:11:31;;;;;;;21.77;4.65;;;10.40;99.90;;;;;;4995867;28;20057;-71
2022/10/02 01:13:57;;;;;;;15.88;3.65;;;10.40;99.90;;;;;;4995697;28;20077;-71
2022/10/02 01:16:23;;;;;;;24.65;4.45;;;10.40;99.90;;;;;;4995557;28;20089;-72
2022/10/02 01:18:49;;;;;;;20.42;4.45;;;10.70;99.90;;;;;;4995558;28;20050;-71
2022/10/02 01:21:25;;;;;;;21.02;4.82;;;10.40;99.90;;;;;;4978138;28;20054;-73
2022/10/02 01:24:14;;;;;;;14.82;5.20;;;10.40;99.90;;;;;;4978461;28;20065;-72
2022/10/02 01:26:40;;;;;;;17.33;4.03;;;10.40;99.90;;;;;;4995494;28;20136;-72
2022/10/02 01:29:06;;;;;;;15.85;3.75;;;10.40;99.90;;;;;;4979182;28;20058;-70
2022/10/02 01:31:34;;;;;;;17.20;3.92;;;10.40;99.90;;;;;;4995931;28;20046;-71
2022/10/02 01:34:00;;;;;;;16.10;4.05;;;10.40;99.90;;;;;;4995267;28;20050;-71
2022/10/02 01:36:26;;;;;;;23.38;4.55;;;10.50;99.90;;;;;;4995653;28;20043;-72
2022/10/02 01:38:53;;;;;;;19.52;3.97;;;10.70;99.90;;;;;;4995424;28;20423;-71
2022/10/02 01:41:19;;;;;;;15.35;3.65;;;10.50;99.90;;;;;;4995353;28;20116;-72
2022/10/02 01:43:52;;;;;;;11.05;3.35;;;10.50;99.90;;;;;;4978877;28;20440;-72
2022/10/02 01:46:49;;;;;;;15.85;3.22;;;10.50;99.90;;;;;;4995307;28;20057;-70
2022/10/02 01:49:21;;;;;;;22.77;3.75;;;10.50;99.90;;;;;;4995564;28;20146;-70
2022/10/02 01:52:06;;;;;;;13.77;4.10;;;10.50;99.90;;;;;;4995202;28;20052;-72
2022/10/02 01:55:05;;;;;;;18.92;3.53;;;10.50;99.90;;;;;;4977944;28;20439;-73
2022/10/02 01:57:47;;;;;;;15.98;3.63;;;10.50;99.90;;;;;;4995664;28;20152;-72
2022/10/02 02:00:19;;;;;;;16.27;3.95;;;10.50;99.90;;;;;;4978010;28;20042;-71
2022/10/02 02:03:07;;;;;;;16.25;3.80;;;10.50;99.90;;;;;;4961654;28;20050;-73
2022/10/02 02:05:54;;;;;;;13.82;3.80;;;10.50;99.90;;;;;;4977776;28;20046;-72
2022/10/02 02:08:52;;;;;;;15.07;4.22;;;10.50;99.90;;;;;;4978020;28;20129;-71
2022/10/02 02:11:21;;;;;;;11.10;3.25;;;10.50;99.90;;;;;;4998584;28;20128;-73
2022/10/02 02:13:58;;;;;;;13.70;3.42;;;10.50;99.90;;;;;;4998960;28;20125;-70
2022/10/02 02:16:27;;;;;;;13.95;3.22;;;10.50;99.90;;;;;;4998003;28;20382;-70
2022/10/02 02:19:06;;;;;;;14.43;3.13;;;10.50;99.90;;;;;;4998612;28;20100;-72
2022/10/02 02:21:38;;;;;;;11.25;2.80;;;10.50;99.90;;;;;;4998551;28;20444;-72
2022/10/02 02:24:13;;;;;;;12.10;2.80;;;10.50;99.90;;;;;;4998629;28;20050;-73
2022/10/02 02:26:42;;;;;;;12.48;2.90;;;10.50;99.90;;;;;;4999021;28;20054;-70
2022/10/02 02:29:09;;;;;;;12.27;3.03;;;10.50;99.90;;;;;;4998717;28;20124;-70
2022/10/02 02:31:46;;;;;;;17.13;3.38;;;10.50;99.90;;;;;;4998072;28;20038;-73
2022/10/02 02:34:16;;;;;;;8.40;2.30;;;10.50;99.90;;;;;;4981488;28;20046;-71
2022/10/02 02:36:45;;;;;;;10.93;3.05;;;10.50;99.90;;;;;;4998438;28;20050;-71
2022/10/02 02:39:30;;;;;;;14.68;3.03;;;10.60;99.90;;;;;;4981397;28;20104;-71
2022/10/02 02:42:02;;;;;;;16.83;3.17;;;10.50;99.90;;;;;;4980959;28;20470;-71
2022/10/02 02:44:51;;;;;;;14.82;2.95;;;10.60;99.90;;;;;;4998170;28;20038;-71
2022/10/02 02:47:21;;;;;;;17.08;3.40;;;10.60;99.90;;;;;;4980316;28;20474;-72
2022/10/02 02:50:02;;;;;;;19.70;3.55;;;10.60;99.90;;;;;;4998459;28;20046;-70
2022/10/02 02:52:41;;;;;;;20.38;3.40;;;10.60;99.90;;;;;;4997940;28;20073;-71
2022/10/02 02:55:17;;;;;;;17.30;2.92;;;10.60;99.90;;;;;;4998109;28;20133;-71
2022/10/02 02:57:53;;;;;;;16.15;3.40;;;10.60;99.90;;;;;;4998157;28;20379;-71
2022/10/02 03:00:19;;;;;;;12.02;3.40;;;10.60;99.90;;;;;;4998012;28;20046;-73
2022/10/02 03:02:45;;;;;;;14.07;2.97;;;10.60;99.90;;;;;;4964092;28;20046;-71
2022/10/02 03:05:16;;;;;;;17.73;3.65;;;10.70;99.90;;;;;;4997864;28;20120;-72
2022/10/02 03:07:56;;;;;;;16.25;3.45;;;10.70;99.90;;;;;;4980416;28;20566;-71
2022/10/02 03:10:53;;;;;;;15.25;2.40;;;10.70;99.90;;;;;;4998003;28;20057;-71
2022/10/02 03:13:51;;;;;;;17.95;4.28;;;10.70;99.90;;;;;;4980648;28;20054;-71
2022/10/02 03:16:32;;;;;;;12.18;2.88;;;10.70;99.90;;;;;;4997610;28;20434;-70
2022/10/02 03:19:35;;;;;;;16.15;3.05;;;10.70;99.90;;;;;;4997685;28;20054;-71
2022/10/02 03:22:15;;;;;;;15.93;3.40;;;10.70;99.90;;;;;;4980196;28;20065;-71
2022/10/02 03:24:40;;;;;;;18.65;3.65;;;10.80;99.90;;;;;;4997598;28;20046;-71
2022/10/02 03:27:11;;;;;;;20.38;3.90;;;10.90;99.90;;;;;;4980733;28;20451;-71
2022/10/02 03:29:48;;;;;;;15.27;3.35;;;10.80;99.90;;;;;;4997682;28;20406;-71
2022/10/02 03:32:16;;;;;;;13.50;3.05;;;10.80;99.90;;;;;;4997071;28;20043;-71
2022/10/02 03:34:43;;;;;;;15.93;3.05;;;10.80;99.90;;;;;;4980184;28;20050;-70
2022/10/02 03:37:09;;;;;;;13.70;3.35;;;10.80;99.90;;;;;;4997160;28;20058;-71
2022/10/02 03:39:39;;;;;;;14.63;3.75;;;10.80;99.90;;;;;;4997242;28;20050;-72
2022/10/02 03:42:05;;;;;;;17.10;3.30;;;10.90;99.90;;;;;;4980030;28;20081;-72
2022/10/02 03:44:30;;;;;;;15.88;3.60;;;10.80;99.90;;;;;;4997103;28;20451;-70
2022/10/02 03:46:56;;;;;;;25.67;3.75;;;10.80;99.90;;;;;;4996404;28;20054;-72
2022/10/02 03:49:21;;;;;;;10.88;3.17;;;10.80;99.90;;;;;;4997145;28;20126;-72
2022/10/02 03:51:47;;;;;;;13.00;3.40;;;10.80;99.90;;;;;;4979998;28;20049;-71
2022/10/02 03:54:16;;;;;;;15.82;3.40;;;10.80;99.90;;;;;;4997329;28;20041;-71
2022/10/02 03:56:52;;;;;;;17.70;3.33;;;10.80;99.90;;;;;;4979319;28;20066;-72
2022/10/02 03:59:39;;;;;;;15.82;3.28;;;10.80;99.90;;;;;;4997249;28;20081;-72
2022/10/02 04:02:12;;;;;;;21.35;4.15;;;10.80;99.90;;;;;;4997072;28;20117;-72
2022/10/02 04:04:58;;;;;;;19.15;3.75;;;10.80;99.90;;;;;;4997526;28;20042;-71
2022/10/02 04:07:31;;;;;;;16.08;3.92;;;10.80;99.90;;;;;;4996960;28;20479;-70
2022/10/02 04:10:09;;;;;;;11.13;3.10;;;10.70;99.90;;;;;;4997216;28;20363;-71
2022/10/02 04:12:40;;;;;;;11.48;3.05;;;10.70;99.90;;;;;;4997021;28;20129;-71
2022/10/02 04:15:20;;;;;;;22.92;4.13;;;10.70;99.90;;;;;;4996534;28;20058;-70
2022/10/02 04:18:02;;;;;;;16.38;4.07;;;10.70;99.90;;;;;;4996468;28;20124;-72
2022/10/02 04:20:37;;;;;;;14.82;3.42;;;10.60;99.90;;;;;;4996786;28;20065;-71
2022/10/02 04:23:21;;;;;;;16.40;3.65;;;10.70;99.90;;;;;;4996589;28;20045;-70
2022/10/02 04:25:51;;;;;;;16.02;3.30;;;10.60;99.90;;;;;;4996519;28;20062;-72
2022/10/02 04:28:26;;;;;;;17.38;3.42;;;10.60;99.90;;;;;;4979179;28;20073;-71
2022/10/02 04:30:52;;;;;;;14.75;3.72;;;10.60;99.90;;;;;;4996642;28;20117;-70
2022/10/02 04:33:21;;;;;;;12.65;3.50;;;10.50;99.90;;;;;;4978305;28;20038;-71
2022/10/02 04:35:46;;;;;;;11.77;2.90;;;10.70;99.90;;;;;;4996212;28;20054;-71
2022/10/02 04:38:39;;;;;;;16.92;3.50;;;10.50;99.90;;;;;;4996464;28;20141;-72
2022/10/02 04:41:23;;;;;;;14.05;4.03;;;10.50;99.90;;;;;;4996386;28;20061;-70
2022/10/02 04:44:12;;;;;;;11.77;2.72;;;10.50;99.90;;;;;;4996059;28;20046;-72
2022/10/02 04:46:47;;;;;;;15.13;3.60;;;10.50;99.90;;;;;;4997033;28;20038;-71
2022/10/02 04:49:49;;;;;;;16.70;4.10;;;10.50;99.90;;;;;;4995190;28;20481;-71
2022/10/02 04:52:29;;;;;;;17.88;3.75;;;10.40;99.90;;;;;;4987865;28;20355;-71
2022/10/02 04:55:38;;;;;;;19.70;3.13;;;10.40;99.90;;;;;;4996095;28;20046;-71
2022/10/02 04:58:22;;;;;;;16.48;3.30;;;10.40;99.90;;;;;;4926327;28;20089;-71
2022/10/02 05:00:51;;;;;;;17.50;3.58;;;10.30;99.90;;;;;;4995627;28;20050;-73
2022/10/02 05:03:26;;;;;;;10.38;3.00;;;10.30;99.90;;;;;;4995863;28;20050;-71
2022/10/02 05:06:10;;;;;;;17.85;2.67;;;10.30;99.90;;;;;;4995465;28;20069;-70
2022/10/02 05:08:58;;;;;;;20.15;4.05;;;10.30;99.90;;;;;;4996118;28;20431;-72
2022/10/02 05:12:00;;;;;;;18.88;3.95;;;10.30;99.90;;;;;;4996450;28;20046;-69
2022/10/02 05:14:45;;;;;;;20.90;3.65;;;10.30;99.90;;;;;;4995800;28;20042;-73
2022/10/02 05:17:27;;;;;;;13.95;3.20;;;10.30;99.90;;;;;;4974794;28;20383;-70
2022/10/02 05:20:08;;;;;;;16.13;3.15;;;10.30;99.90;;;;;;4987347;28;20173;-69
2022/10/02 05:22:52;;;;;;;17.65;3.72;;;10.30;99.90;;;;;;4978186;28;20126;-71
2022/10/02 05:25:40;;;;;;;21.88;3.67;;;10.30;99.90;;;;;;4994198;28;20074;-72
2022/10/02 05:28:42;;;;;;;16.33;3.65;;;10.30;99.90;;;;;;4978456;28;20046;-70
2022/10/02 05:31:29;;;;;;;18.25;3.97;;;10.30;99.90;;;;;;4995026;28;20518;-69
2022/10/02 05:34:21;;;;;;;15.50;3.28;;;10.20;99.90;;;;;;4993337;28;20038;-71
2022/10/02 05:37:09;;;;;;;15.73;3.13;;;10.20;99.90;;;;;;4964415;28;20494;-72
2022/10/02 05:39:44;;;;;;;13.75;3.20;;;10.10;99.90;;;;;;4995302;28;20046;-71
2022/10/02 05:42:19;;;;;;;16.48;3.80;;;10.10;99.90;;;;;;4977951;28;20148;-70
2022/10/02 05:44:51;;;;;;;19.45;3.72;;;10.10;99.90;;;;;;4996360;28;20093;-71
2022/10/02 05:47:28;;;;;;;17.73;3.97;;;10.00;99.90;;;;;;4999348;28;20148;-70
2022/10/02 05:50:15;;;;;;;16.42;3.33;;;10.00;99.90;;;;;;4998790;28;20039;-71
2022/10/02 05:52:49;;;;;;;19.38;3.20;;;10.00;99.90;;;;;;4981265;28;20042;-71
2022/10/02 05:55:27;;;;;;;13.77;3.15;;;10.00;99.90;;;;;;4996334;28;20057;-70
2022/10/02 05:58:13;;;;;;;22.85;4.15;;;10.00;99.90;;;;;;4996359;28;20065;-71
2022/10/02 06:00:47;;;;;;;15.27;3.78;;;10.00;99.90;;;;;;4998726;28;20065;-70
2022/10/02 06:03:44;;;;;;;15.95;3.83;;;10.00;99.90;;;;;;4998798;28;20050;-71
2022/10/02 06:06:30;;;;;;;12.52;2.88;;;10.00;99.90;;;;;;4998771;28;20477;-71
2022/10/02 06:09:03;;;;;;;15.00;3.30;;;10.00;99.90;;;;;;4998692;28;20340;-69
2022/10/02 06:11:41;;;;;;;13.32;3.17;;;10.10;99.90;;;;;;4981542;28;20127;-71
2022/10/02 06:14:15;;;;;;;19.40;3.47;;;10.10;99.90;;;;;;4981985;28;20371;-70
2022/10/02 06:16:54;;;;;;;12.20;3.88;;;10.10;99.90;;;;;;4998592;28;20046;-70
2022/10/02 06:19:43;;;;;;;18.02;3.20;;;10.10;99.90;;;;;;4998595;28;20042;-72
2022/10/02 06:22:18;;;;;;;15.30;3.50;;;10.20;99.90;;;;;;4998932;28;20054;-71
2022/10/02 06:24:51;;;;;;;14.68;3.17;;;10.20;99.90;;;;;;4998755;28;20391;-69
2022/10/02 06:27:50;;;;;;;14.80;3.80;;;10.20;99.90;;;;;;4995480;28;20054;-72
2022/10/02 06:30:18;;;;;;;11.77;3.30;;;10.20;99.90;;;;;;4983822;28;20108;-71
2022/10/02 06:33:00;;;;;;;12.25;3.03;;;10.30;99.90;;;;;;4998776;28;20100;-73
2022/10/02 06:36:00;;;;;;;23.15;3.75;;;10.30;99.90;;;;;;4998369;28;20050;-72
2022/10/02 06:39:09;;;;;;;16.83;3.80;;;10.30;99.90;;;;;;4997895;28;20137;-73
2022/10/02 06:41:37;;;;;;;19.20;3.35;;;10.40;99.90;;;;;;4997786;28;20456;-72
2022/10/02 06:44:29;;;;;;;10.82;2.60;;;10.40;99.90;;;;;;4981895;28;20145;-73
2022/10/02 06:47:22;;;;;;;14.10;2.85;;;10.50;99.90;;;;;;4998175;28;20138;-72
2022/10/02 06:50:06;;;;;;;12.13;2.93;;;10.60;99.90;;;;;;4997918;28;20042;-72
2022/10/02 06:52:38;;;;;;;14.13;3.17;;;10.70;99.90;;;;;;4998497;28;20082;-71
2022/10/02 06:55:22;;;;;;;21.00;3.83;;;10.70;99.90;;;;;;4980257;28;20112;-73
2022/10/02 06:58:17;;;;;;;15.80;3.85;;;10.80;99.90;;;;;;4959153;29;20044;-73
2022/10/02 07:00:59;;;;;;;16.70;3.20;;;10.90;99.90;;;;;;4959997;29;20114;-72
2022/10/02 07:04:07;;;;;;;20.88;4.35;;;11.10;99.90;;;;;;4959514;29;20055;-73
2022/10/02 07:06:44;;;;;;;13.77;3.42;;;11.20;99.90;;;;;;4959345;29;20460;-73
2022/10/02 07:09:18;;;;;;;15.88;3.17;;;11.50;99.90;;;;;;4959344;29;20063;-72
2022/10/02 07:12:03;;;;;;;18.95;3.88;;;11.80;99.90;;;;;;4973008;28;20054;-73
2022/10/02 07:15:16;;;;;;;14.70;3.00;;;11.90;99.90;;;;;;4978334;28;20049;-72
2022/10/02 07:18:09;;;;;;;11.77;3.35;;;12.00;99.90;;;;;;4899774;29;20057;-72
2022/10/02 07:21:02;;;;;;;21.35;3.25;;;12.10;99.90;;;;;;4899721;29;20044;-73
2022/10/02 07:23:48;;;;;;;16.08;4.32;;;12.20;99.90;;;;;;4970029;28;20075;-71
2022/10/02 07:26:39;;;;;;;12.07;2.78;;;12.30;99.90;;;;;;4960958;28;20082;-72
2022/10/02 07:29:17;;;;;;;12.52;3.13;;;12.50;99.90;;;;;;4978183;28;20078;-72
2022/10/02 07:32:01;;;;;;;14.02;3.15;;;12.50;99.90;;;;;;4961428;28;20050;-72
2022/10/02 07:34:31;;;;;;;17.63;3.83;;;12.60;99.90;;;;;;4961093;28;20487;-71
2022/10/02 07:37:21;;;;;;;8.88;3.03;;;12.60;99.90;;;;;;4978114;28;20061;-73
2022/10/02 07:40:27;;;;;;;16.70;3.65;;;12.60;99.90;;;;;;4978032;28;20066;-74
2022/10/02 07:42:59;;;;;;;16.27;4.07;;;12.60;99.90;;;;;;4865311;29;20059;-73
2022/10/02 07:45:32;;;;;;;15.18;3.40;;;12.70;99.90;;;;;;4880579;29;20045;-75
2022/10/02 07:48:20;;;;;;;16.05;3.13;;;12.70;99.90;;;;;;4920671;28;20085;-74
2022/10/02 07:50:57;;;;;;;18.67;3.67;;;12.80;99.90;;;;;;4978361;28;20051;-71
2022/10/02 07:53:23;;;;;;;12.18;2.63;;;12.90;99.90;;;;;;4977563;28;20105;-74
2022/10/02 07:55:52;;;;;;;12.88;2.90;;;12.90;99.90;;;;;;4982783;28;20378;-72
2022/10/02 07:58:42;;;;;;;11.38;2.22;;;12.90;99.90;;;;;;4979948;28;20057;-72
2022/10/02 08:01:16;;;;;;;8.57;2.50;;;13.00;99.90;;;;;;4996512;28;20358;-73
2022/10/02 08:03:57;;;;;;;14.50;3.00;;;13.10;99.90;;;;;;4980132;28;20077;-72
2022/10/02 08:06:23;;;;;;;11.55;3.10;;;13.30;99.90;;;;;;4997041;28;20466;-72
2022/10/02 08:09:10;;;;;;;15.45;3.45;;;13.20;99.90;;;;;;4979309;28;20078;-72
2022/10/02 08:11:43;;;;;;;13.60;3.45;;;13.10;99.90;;;;;;4996448;28;20039;-74
2022/10/02 08:14:18;;;;;;;15.98;3.63;;;13.00;99.90;;;;;;4996892;28;20082;-74
2022/10/02 08:16:49;;;;;;;15.93;3.35;;;12.80;99.90;;;;;;4996759;28;20042;-74
2022/10/02 08:19:38;;;;;;;13.75;3.58;;;12.70;99.90;;;;;;4979403;28;20526;-72
2022/10/02 08:22:25;;;;;;;14.88;3.60;;;12.60;99.90;;;;;;4996514;28;20117;-73
2022/10/02 08:25:04;;;;;;;19.30;3.70;;;12.60;99.90;;;;;;4987002;28;20452;-73
2022/10/02 08:27:44;;;;;;;19.15;4.22;;;12.70;99.90;;;;;;4959908;28;20038;-73
2022/10/02 08:30:12;;;;;;;16.55;3.90;;;12.60;99.90;;;;;;4960030;28;20043;-72
2022/10/02 08:32:38;;;;;;;12.88;2.90;;;12.60;99.90;;;;;;4977215;28;20110;-73
2022/10/02 08:35:15;;;;;;;18.27;4.53;;;12.60;99.90;;;;;;4976802;28;20050;-73
2022/10/02 08:38:11;;;;;;;15.50;4.05;;;12.70;99.90;;;;;;4960019;28;20090;-76
2022/10/02 08:41:10;;;;;;;11.23;2.95;;;12.70;99.90;;;;;;4992716;28;20514;-73
2022/10/02 08:44:17;;;;;;;16.88;4.15;;;12.70;99.90;;;;;;4994493;28;20524;-73
2022/10/02 08:47:13;;;;;;;16.98;3.85;;;12.70;99.90;;;;;;4882483;29;20108;-74
2022/10/02 08:49:51;;;;;;;13.75;3.65;;;12.70;99.90;;;;;;4979254;28;20050;-72
2022/10/02 08:52:54;;;;;;;15.55;4.10;;;12.70;99.90;;;;;;4995888;28;20045;-72
2022/10/02 08:55:39;;;;;;;14.13;3.53;;;12.90;99.90;;;;;;4995698;28;20042;-73
2022/10/02 08:58:47;;;;;;;13.50;3.90;;;13.00;99.90;;;;;;4995477;28;20054;-72
2022/10/02 09:01:50;;;;;;;11.50;3.10;;;13.30;99.90;;;;;;4996096;28;20050;-73
2022/10/02 09:04:46;;;;;;;10.73;3.08;;;13.50;99.90;;;;;;4995793;28;20042;-74
2022/10/02 09:07:23;;;;;;;12.27;3.22;;;13.80;99.90;;;;;;4995925;28;20050;-74
2022/10/02 09:10:16;;;;;;;17.10;3.67;;;13.90;99.90;;;;;;4995696;28;20057;-73
2022/10/02 09:13:02;;;;;;;16.10;2.88;;;14.20;99.90;;;;;;4994032;28;20054;-74
2022/10/02 09:15:49;;;;;;;15.40;3.53;;;14.20;99.90;;;;;;4965384;28;20055;-72
2022/10/02 09:18:24;;;;;;;12.65;3.22;;;14.40;99.90;;;;;;4976021;28;20101;-73
2022/10/02 09:20:56;;;;;;;11.27;3.38;;;14.40;99.90;;;;;;4958758;28;20121;-72
2022/10/02 09:23:43;;;;;;;11.23;3.15;;;14.40;99.90;;;;;;4976020;28;20039;-73
2022/10/02 09:26:16;;;;;;;12.60;2.40;;;14.40;99.90;;;;;;4976138;28;20061;-72
2022/10/02 09:28:54;;;;;;;;;;;14.40;99.90;;;;;;4976424;28;20050;-72
2022/10/02 09:31:50;;;;;;;11.70;3.25;;;14.40;99.90;;;;;;4960165;28;19922;-70
2022/10/02 09:34:19;;;;;;;11.80;2.88;;;14.40;99.90;;;;;;4975792;28;20189;-73
2022/10/02 09:37:07;;;;;;;20.63;3.85;;;14.50;99.90;;;;;;4959935;28;20109;-76
2022/10/02 09:40:04;;;;;;;11.90;3.00;;;14.50;99.90;;;;;;4991550;28;20185;-72
2022/10/02 09:42:51;;;;;;;10.02;2.33;;;14.50;99.90;;;;;;4995459;28;20042;-72
2022/10/02 09:45:38;;;;;;;8.55;2.17;;;14.60;99.90;;;;;;4978023;28;20054;-72
2022/10/02 09:48:33;;;;;;;11.70;2.85;;;14.70;99.90;;;;;;4995178;28;20081;-71
2022/10/02 09:51:40;;;;;;;9.07;2.35;;;14.60;99.90;;;;;;4980072;28;20116;-72
2022/10/02 09:54:56;;;;;;;12.90;2.67;;;14.70;99.90;;;;;;4984885;28;20086;-72
2022/10/02 09:57:49;;;;;;;14.27;2.95;;;14.70;99.90;;;;;;4944900;28;20067;-71
2022/10/02 10:00:36;;;;;;;13.52;3.70;;;14.70;99.90;;;;;;4985971;28;20061;-72
2022/10/02 10:03:35;;;;;;;15.68;3.08;;;14.70;99.90;;;;;;4995347;28;20050;-72
2022/10/02 10:06:45;;;;;;;12.50;2.95;;;14.60;99.90;;;;;;4977367;28;20054;-74
2022/10/02 10:09:33;;;;;;;15.43;3.03;;;14.50;99.90;;;;;;4974804;28;20531;-71
2022/10/02 10:12:37;;;;;;;13.38;3.28;;;14.40;99.90;;;;;;4995230;28;20363;-72
2022/10/02 10:15:14;;;;;;;13.98;3.75;;;14.50;99.90;;;;;;4994858;28;20352;-72
2022/10/02 10:18:17;;;;;;;15.02;3.95;;;14.60;99.90;;;;;;4994981;28;20121;-73
2022/10/02 10:20:53;;;;;;;12.87;3.43;;;14.60;99.90;;;;;;4977910;28;20469;-74
2022/10/02 10:23:53;;;;;;;14.73;3.72;;;14.70;99.90;;;;;;4991637;28;20050;-72
2022/10/02 10:26:34;;;;;;;14.75;3.92;;;14.80;99.90;;;;;;4975569;28;20123;-71
2022/10/02 10:29:20;;;;;;;15.15;3.45;;;14.90;99.90;;;;;;4975534;28;20057;-72
2022/10/02 10:32:07;;;;;;;17.45;3.67;;;14.90;99.90;;;;;;4977867;28;20051;-72
2022/10/02 10:34:46;;;;;;;14.20;3.67;;;15.00;99.90;;;;;;4978790;28;20047;-72
2022/10/02 10:40:37;;;;;;;17.05;3.53;;;15.10;99.90;;;;;;4998309;28;20047;-71
2022/10/02 10:43:24;;;;;;;13.07;2.88;;;15.20;99.90;;;;;;4998312;28;20113;-73
2022/10/02 10:46:08;;;;;;;18.63;3.95;;;15.40;99.90;;;;;;4998311;28;20046;-72
2022/10/02 10:48:36;;;;;;;;;;;15.50;99.90;;;;;;4998059;28;20133;-71
2022/10/02 10:51:29;;;;;;;13.32;3.20;;;15.70;99.90;;;;;;4994527;28;20266;-72
2022/10/02 10:54:13;;;;;;;13.27;3.17;;;16.00;99.90;;;;;;4997675;28;20046;-74
2022/10/02 10:56:59;;;;;;;10.63;2.53;;;16.30;99.90;;;;;;4997917;28;20054;-72
2022/10/02 10:59:44;;;;;;;16.38;2.92;;;16.50;99.90;;;;;;4997968;28;20077;-73
2022/10/02 11:02:53;;;;;;;14.30;3.17;;;16.50;99.90;;;;;;4998021;28;20085;-71
2022/10/02 11:05:49;;;;;;;16.33;3.38;;;16.40;99.90;;;;;;4998186;28;20086;-72
2022/10/02 11:08:23;;;;;;;16.20;4.30;;;16.30;99.90;;;;;;4998109;28;20120;-73
2022/10/02 11:11:26;;;;;;;11.88;3.10;;;16.30;99.90;;;;;;4997398;28;20046;-74
2022/10/02 11:14:26;;;;;;;15.90;3.53;;;16.20;99.90;;;;;;4936841;28;20072;-71
2022/10/02 11:17:06;;;;;;;13.23;3.85;;;16.20;99.90;;;;;;5017449;28;20366;-72
2022/10/02 11:20:00;;;;;;;19.67;3.28;;;16.40;99.90;;;;;;5017897;28;20041;-73
2022/10/02 11:22:38;;;;;;;14.40;3.33;;;16.30;99.90;;;;;;5007692;28;20054;-72
2022/10/02 11:25:27;;;;;;;7.18;2.30;;;16.30;99.90;;;;;;5017422;28;20125;-72
2022/10/02 11:28:30;;;;;;;12.10;3.53;;;16.30;99.90;;;;;;5001136;28;20192;-71
2022/10/02 11:31:24;;;;;;;16.30;3.58;;;16.30;99.90;;;;;;4997556;28;20043;-72
2022/10/02 11:34:17;;;;;;;12.25;2.65;;;16.30;99.90;;;;;;4997134;28;20050;-72
2022/10/02 11:36:55;;;;;;;10.95;3.00;;;16.30;99.90;;;;;;4984693;28;20063;-71
2022/10/02 11:39:46;;;;;;;11.25;2.55;;;16.40;99.90;;;;;;4977153;28;20468;-72
2022/10/02 11:42:36;;;;;;;11.32;2.70;;;16.40;99.90;;;;;;4977999;28;20061;-72
2022/10/02 11:45:25;;;;;;;16.40;2.97;;;16.40;99.90;;;;;;4995607;28;20513;-73
2022/10/02 11:48:28;;;;;;;11.77;3.20;;;16.40;99.90;;;;;;4962546;28;20133;-72
2022/10/02 11:51:00;;;;;;;12.80;3.53;;;16.40;99.90;;;;;;4996245;28;20050;-69
2022/10/02 11:53:34;;;;;;;12.90;3.45;;;16.60;99.90;;;;;;4996254;28;20121;-71
2022/10/02 11:56:21;;;;;;;;;;;16.70;99.90;;;;;;4996230;28;20062;-69
2022/10/02 11:59:08;;;;;;;14.00;3.20;;;16.80;99.90;;;;;;4996120;28;19926;-70
2022/10/02 12:01:49;;;;;;;13.32;3.50;;;17.00;99.90;;;;;;4996105;28;20046;-73
2022/10/02 12:04:44;;;;;;;13.65;2.72;;;17.00;99.90;;;;;;4989440;28;20186;-72
2022/10/02 12:07:25;;;;;;;15.13;3.13;;;17.00;99.90;;;;;;4995810;28;20092;-71
2022/10/02 12:10:15;;;;;;;11.27;2.65;;;17.10;99.90;;;;;;4979326;28;20065;-72
2022/10/02 12:12:53;;;;;;;8.75;2.20;;;17.20;99.90;;;;;;4996093;28;20112;-71
2022/10/02 12:15:49;;;;;;;10.18;2.50;;;17.20;99.90;;;;;;4995969;28;20438;-70
2022/10/02 12:19:05;;;;;;;11.18;2.90;;;17.10;99.90;;;;;;4945553;28;20057;-69
2022/10/02 12:28:20;;;;;;;19.30;3.33;;;16.90;99.90;;;;;;4996511;28;20054;-71
2022/10/02 12:31:18;;;;;;;14.43;3.15;;;16.80;99.90;;;;;;4996239;28;20039;-71
2022/10/02 12:34:25;;;;;;;11.35;2.55;;;16.90;99.90;;;;;;4996121;28;20132;-71
2022/10/02 12:36:57;;;;;;;9.77;2.30;;;17.10;99.90;;;;;;4917099;29;20048;-71
2022/10/02 12:39:38;;;;;;;10.57;2.83;;;17.20;99.90;;;;;;5002947;28;20113;-71
2022/10/02 12:42:25;;;;;;;13.07;2.83;;;17.30;99.90;;;;;;5015867;28;20370;-70
2022/10/02 12:45:15;;;;;;;13.65;2.97;;;17.40;99.90;;;;;;5015893;28;20050;-71
2022/10/02 12:47:59;;;;;;;12.00;2.78;;;17.60;99.90;;;;;;5012645;28;20054;-71
2022/10/02 12:50:28;;;;;;;9.50;2.58;;;17.60;99.90;;;;;;4996149;28;20121;-70
2022/10/02 12:53:30;;;;;;;11.35;3.15;;;17.60;99.90;;;;;;4998021;28;20067;-71
2022/10/02 12:56:07;;;;;;;12.10;2.75;;;17.60;99.90;;;;;;4997829;28;20061;-70
2022/10/02 12:58:51;;;;;;;14.70;3.17;;;17.60;99.90;;;;;;4998437;28;20045;-72
2022/10/02 13:01:48;;;;;;;14.70;2.58;;;17.60;99.90;;;;;;5015447;28;20050;-70
2022/10/02 13:04:36;;;;;;;12.02;2.70;;;17.50;99.90;;;;;;4980437;28;20062;-70
2022/10/02 13:07:14;;;;;;;12.10;2.67;;;17.60;99.90;;;;;;4995912;28;20054;-68
2022/10/02 13:09:57;;;;;;;13.55;2.50;;;17.60;99.90;;;;;;4993584;28;20125;-71
2022/10/02 13:12:54;;;;;;;10.63;2.60;;;17.50;99.90;;;;;;4994842;28;20072;-71
2022/10/02 13:15:38;;;;;;;11.98;3.03;;;17.50;99.90;;;;;;4995270;28;20133;-72
2022/10/02 13:18:24;;;;;;;;;;;17.50;99.90;;;;;;4993023;28;20112;-72
2022/10/02 13:21:08;;;;;;;12.48;2.55;;;17.50;99.90;;;;;;4993194;28;19948;-72
2022/10/02 13:24:07;;;;;;;10.45;3.00;;;17.40;99.90;;;;;;4971888;28;20380;-72
2022/10/02 13:26:50;;;;;;;9.85;2.25;;;17.10;99.90;;;;;;4992308;28;20054;-70
2022/10/02 13:29:41;;;;;;;16.38;3.25;;;16.90;99.90;;;;;;4994885;28;20058;-70
2022/10/02 13:32:30;;;;;;;18.73;3.95;;;16.80;99.90;;;;;;4977105;28;20526;-72
2022/10/02 13:35:15;;;;;;;14.00;4.30;;;16.70;99.90;;;;;;4987911;28;20197;-70
2022/10/02 13:38:02;;;;;;;13.18;3.15;;;16.70;99.90;;;;;;4994656;28;20363;-72
2022/10/02 13:40:34;;;;;;;12.13;3.67;;;16.70;99.90;;;;;;4984856;28;20038;-71
2022/10/02 13:43:22;;;;;;;14.82;3.95;;;16.80;99.90;;;;;;4994585;28;20100;-72
2022/10/02 13:46:09;;;;;;;14.27;3.50;;;16.90;99.90;;;;;;4994296;28;20545;-70
2022/10/02 13:48:56;;;;;;;15.30;3.63;;;17.00;99.90;;;;;;4988109;28;20042;-71
2022/10/02 13:51:35;;;;;;;12.05;3.13;;;17.10;99.90;;;;;;4992868;28;20467;-72
2022/10/02 13:54:29;;;;;;;11.32;3.05;;;17.30;99.90;;;;;;4962938;28;20054;-69
2022/10/02 13:57:25;;;;;;;9.98;2.10;;;17.50;99.90;;;;;;4981653;28;20324;-72
2022/10/02 14:00:29;;;;;;;12.20;2.90;;;17.60;99.90;;;;;;4994443;28;20379;-70
2022/10/02 14:03:02;;;;;;;;;;;17.70;99.90;;;;;;4994362;28;20344;-71
2022/10/02 14:05:42;;;;;;;19.67;3.05;;;17.80;99.90;;;;;;4994355;28;19922;-71
2022/10/02 14:08:29;;;;;;;11.20;2.78;;;17.80;99.90;;;;;;4998091;28;20057;-72